Terminal Aerodrome Forecast
Issued by NWS San Angelo, TX

Home | Current Version | Previous Version | Text Only | Print | Product List | Glossary On
Versions: 1 2 3 4 5 6 7 8 9 10 11 12 13 14 15 16 17 18 19
000
FTUS44 KSJT 022015 AAD
TAFSJT
TAF AMD
KSJT 022015Z 0220/0318 09010KT 6SM -RA OVC014
      TEMPO 0220/0221 4SM -RA BR OVC009
     FM022100 10010KT 5SM -RA OVC010
      TEMPO 0221/0224 4SM -RA BR OVC007
     FM030000 08008KT 4SM -DZ BR OVC004
     FM030900 05006KT 5SM -RA BR OVC007
     FM031200 05009KT 2SM -RA BR OVC007=

USA.gov is the U.S. government's official web portal to all federal, state and local government web resources and services.